Shelbyville, TN (37160)

2:07 AM CDT on October 24, 2014 (GMT -0500)
KTNSHELB6 | Change Station
CLOSE
Current Station
Personal Weather Station
Location: SHELBYVILLE, TN
Elevation: 909 ft
Nearby Weather Stations

Elev 909 ft 35.51 °N, 86.43 °W | Updated 6 minutes ago

Mostly Cloudy
Mostly Cloudy
48.7 °F
Feels Like 49 °F
N
0.0
Wind Variable Wind from ENE

Today
High -- | Low -- °F
--% Chance of Precip.
Yesterday
High -- | Low -- °F
Precip. -- in
7:00 AM 5:59 PM
New Moon, 0% visible
Pressure 30.11 in
Visibility 5.0 miles
Clouds Clear
Windchill 49 °F
Dew Point 46 °F
Humidity 90%
Rainfall 0.01 in
Snow Depth Not available.
UV 0 out of 12
Pollen 1.50 out of 12
Air Quality Not available.
Flu Activity Sporadic
METAR KTHA 240655Z AUTO 19003KT 5SM CLR 07/06 A3011 RMK

More Conditions Fewer Conditions

Pressure 30.11 in
Visibility 5.0 miles
Clouds Clear
Windchill 49 °F
Dew Point 46 °F
Humidity 90%
Rainfall 0.01 in
Snow Depth Not available.
UV 0 out of 12
Pollen 1.50 out of 12
Air Quality Not available.
Flu Activity Sporadic
METAR KTHA 240655Z AUTO 19003KT 5SM CLR 07/06 A3011 RMK

More Conditions Fewer Conditions

10-Day Weather Forecast

Almanac

Astronomy

Oct. 24, 2014 Rise Set
Actual Time 7:00 AM CDT 5:59 PM CDT
Civil Twilight 6:34 AM CDT 6:25 PM CDT
Nautical Twilight 6:04 AM CDT 6:55 PM CDT
Astronomical Twilight 5:34 AM CDT 7:24 PM CDT
Moon 7:37 AM CDT 6:40 PM CDT
Length of Visible Light 11h 51m
Length of Day
10h 59m
Tomorrow will be 2m 4s shorter.
New Moon, 0% of the Moon is Illuminated
Today
New Moon
Oct 30
First Quarter
Nov 6
Full
Nov 14
Last Quarter
Nov 22
New

Today's Extremes

State Highs State Lows

Community

WunderPhotos

Upload Photos

1,764,510 photos uploaded!

WunderBlogs® & News

Nearby

Snow Depth

Station Depth Elevation
No new snow has been reported.

Earthquake Activity

City Distance Mag. Time & Date
No recent earthquake activity has been reported nearby.
Minimum magnitude displayed is 2.5.

Coastal Water Temperatures

Place Temperature
No Stations Reporting

Nearby Weather Stations